Fremont, California
Current Conditions -  °F | °C
As of 11:56 PM on Thursday 27 Nov 2014 (Local Time) from KNUQ Reporting Station
Clear Clear  
Wind Chill: 49°   Ceiling: Unl
Heat Index: 49°   Visibility: 10mi
Dew Point: 44°   Wind: 0mph
Humidity: 83%   Direction: NA
Pressure: 30.08"   Gusts: NA
Location:  37.55°N, 121.98°W
Report Text: KNUQ 280756Z AUTO 00000KT 10SM CLR 09/07 A3008 RMK AO2 SLP190 T00940067 402060072 TSNO $
Loading
Personal Weather Stations






























Interactive Weather Map New forecast layout! Learn more

10-Day Weather Forecast

Advertisements
Track Severe Weather on mobile